Waynesburg, OH (44688)

8:36 AM EST on December 18, 2014 (GMT -0500)
Village of East Canton | Change Station
CLOSE
Current Station
Personal Weather Station
Location: East Canton, OH
Elevation: 1155 ft
Nearby Weather Stations

Elev 1155 ft 40.79 °N, 81.29 °W | Updated 1 minute ago

Overcast
Overcast
27.5 °F
Feels Like 22 °F
N
4.5
Wind Variable Wind from West
Gusts 7.6 mph

Today
High -- | Low -- °F
--% Chance of Precip.
Yesterday
High -- | Low -- °F
Precip. -- in
7:43 AM 4:59 PM
Waning Crescent, 14% visible
Pressure 30.26 in
Visibility 10.0 miles
Clouds Overcast 2400 ft
Windchill 22 °F
Dew Point 18 °F
Humidity 68%
Rainfall 0.00 in
Snow Depth Not available.
UV 0 out of 12
Pollen .10 out of 12
Air Quality Not available.
Flu Activity Not available.
METAR KPHD 181253Z AUTO 26005KT 10SM OVC024 M02/M06 A3023 RMK AO2 SLP246 T10171061

More Conditions Fewer Conditions

Pressure 30.26 in
Visibility 10.0 miles
Clouds Overcast 2400 ft
Windchill 22 °F
Dew Point 18 °F
Humidity 68%
Rainfall 0.00 in
Snow Depth Not available.
UV 0 out of 12
Pollen .10 out of 12
Air Quality Not available.
Flu Activity Not available.
METAR KPHD 181253Z AUTO 26005KT 10SM OVC024 M02/M06 A3023 RMK AO2 SLP246 T10171061

More Conditions Fewer Conditions

10-Day Weather Forecast

Almanac

Astronomy

Dec. 18, 2014 Rise Set
Actual Time
Civil Twilight
Nautical Twilight
Astronomical Twilight
Moon
Length of Visible Light
Length of Day
Tomorrow will be .
, % of the Moon is Illuminated

Today's Extremes

State Highs State Lows

Community

WunderPhotos

Upload Photos

1,778,927 photos uploaded!

WunderBlogs® & News

Nearby

Air Quality

  Air Quality AQ Index Pollutant
Not available.

Snow Depth

Station Depth Elevation

Earthquake Activity

City Distance Mag. Time & Date
Minimum magnitude displayed is 2.5.

Coastal Water Temperatures

Place Temperature

Nearby Weather Stations